createdAt,value
2018-12-12T00:01:19.613Z,15.65
2018-12-12T00:03:47.825Z,17.12
2018-12-12T00:06:16.081Z,17.20
2018-12-12T00:08:44.733Z,14.47
2018-12-12T00:11:14.514Z,15.35
2018-12-12T00:13:42.736Z,16.32
2018-12-12T00:16:11.040Z,14.85
2018-12-12T00:18:39.266Z,15.40
2018-12-12T00:21:07.997Z,17.50
2018-12-12T00:23:36.202Z,15.23
2018-12-12T00:26:06.069Z,17.05
2018-12-12T00:28:34.428Z,15.55
2018-12-12T00:31:04.171Z,14.73
2018-12-12T00:33:32.650Z,15.65
2018-12-12T00:36:00.990Z,15.43
2018-12-12T00:38:29.350Z,17.37
2018-12-12T00:40:58.282Z,15.13
2018-12-12T00:43:26.648Z,15.68
2018-12-12T00:45:54.869Z,14.98
2018-12-12T00:48:23.107Z,16.10
2018-12-12T00:50:51.449Z,15.18
2018-12-12T00:53:19.825Z,15.72
2018-12-12T00:55:49.567Z,16.02
2018-12-12T00:58:17.950Z,13.70
2018-12-12T01:00:46.158Z,14.78
2018-12-12T01:03:16.796Z,14.40
2018-12-12T01:05:45.145Z,15.35
2018-12-12T01:08:13.528Z,14.90
2018-12-12T01:10:41.879Z,14.00
2018-12-12T01:13:10.245Z,14.05
2018-12-12T01:15:38.599Z,15.45
2018-12-12T01:18:06.849Z,13.15
2018-12-12T01:20:36.396Z,14.43
2018-12-12T01:23:04.763Z,14.25
2018-12-12T01:25:34.986Z,15.55
2018-12-12T01:28:03.250Z,15.43
2018-12-12T01:30:32.789Z,13.93
2018-12-12T01:33:01.038Z,14.55
2018-12-12T01:35:29.386Z,14.30
2018-12-12T01:37:57.655Z,16.10
2018-12-12T01:40:25.874Z,14.38
2018-12-12T01:42:54.130Z,14.55
2018-12-12T01:45:23.682Z,14.85
2018-12-12T01:47:52.622Z,14.78
2018-12-12T01:50:20.930Z,13.75
2018-12-12T01:52:50.753Z,13.85
2018-12-12T01:55:18.983Z,14.20
2018-12-12T01:57:48.739Z,14.60
2018-12-12T02:00:17.012Z,14.10
2018-12-12T02:02:47.217Z,12.60
2018-12-12T02:05:15.456Z,13.85
2018-12-12T02:07:45.610Z,14.13
2018-12-12T02:10:14.064Z,13.85
2018-12-12T02:12:48.321Z,13.28
2018-12-12T02:15:16.687Z,14.20
2018-12-12T02:17:46.534Z,15.68
2018-12-12T02:20:14.781Z,15.18
2018-12-12T02:22:44.638Z,14.50
2018-12-12T02:25:13.773Z,14.85
2018-12-12T02:27:43.605Z,15.48
2018-12-12T02:30:11.853Z,15.98
2018-12-12T02:32:41.497Z,16.05
2018-12-12T02:35:11.762Z,17.02
2018-12-12T02:37:42.009Z,15.78
2018-12-12T02:40:12.266Z,17.77
2018-12-12T02:42:42.511Z,17.62
2018-12-12T02:45:10.763Z,16.37
2018-12-12T02:47:40.797Z,16.10
2018-12-12T02:50:09.612Z,15.90
2018-12-12T02:52:39.166Z,16.10
2018-12-12T02:55:07.416Z,16.32
2018-12-12T02:57:36.964Z,17.37
2018-12-12T03:00:08.355Z,18.23
2018-12-12T03:02:38.841Z,18.15
2018-12-12T03:05:07.121Z,19.45
2018-12-12T03:07:37.067Z,18.42
2018-12-12T03:10:05.547Z,17.80
2018-12-12T03:12:35.376Z,16.67
2018-12-12T03:15:05.042Z,17.25
2018-12-12T03:17:34.587Z,18.12
2018-12-12T03:20:04.292Z,18.20
2018-12-12T03:22:34.522Z,17.67
2018-12-12T03:25:02.734Z,17.98
2018-12-12T03:27:32.503Z,21.62
2018-12-12T03:30:00.865Z,17.85
2018-12-12T03:32:31.767Z,18.57
2018-12-12T03:34:59.982Z,18.62
2018-12-12T03:37:28.225Z,17.65
2018-12-12T03:39:56.747Z,20.60
2018-12-12T03:42:25.374Z,17.35
2018-12-12T03:44:53.577Z,18.90
2018-12-12T03:47:21.951Z,19.55
2018-12-12T03:49:50.185Z,20.10
2018-12-12T03:52:18.421Z,17.62
2018-12-12T03:54:46.669Z,19.23
2018-12-12T03:57:16.082Z,19.12
2018-12-12T03:59:44.320Z,19.17
2018-12-12T04:02:12.652Z,19.15
2018-12-12T04:04:40.855Z,18.90
2018-12-12T04:07:09.222Z,17.95
2018-12-12T04:09:37.422Z,17.87
2018-12-12T04:12:07.078Z,17.00
2018-12-12T04:14:35.406Z,17.30
2018-12-12T04:17:04.979Z,19.50
2018-12-12T04:19:33.183Z,18.23
2018-12-12T04:22:02.962Z,18.75
2018-12-12T04:24:31.358Z,16.90
2018-12-12T04:27:00.933Z,20.25
2018-12-12T04:29:29.146Z,17.55
2018-12-12T04:31:58.699Z,17.25
2018-12-12T04:34:26.949Z,19.57
2018-12-12T04:36:55.157Z,20.37
2018-12-12T04:39:23.393Z,18.12
2018-12-12T04:41:53.121Z,17.23
2018-12-12T04:44:21.979Z,19.15
2018-12-12T04:46:50.186Z,18.82
2018-12-12T04:49:18.433Z,17.37
2018-12-12T04:51:47.977Z,19.48
2018-12-12T04:54:16.222Z,15.93
2018-12-12T04:56:45.842Z,19.85
2018-12-12T04:59:14.470Z,19.10
2018-12-12T05:01:44.218Z,19.35
2018-12-12T05:04:12.625Z,18.50
2018-12-12T05:06:42.260Z,18.57
2018-12-12T05:09:10.501Z,17.65
2018-12-12T05:11:40.732Z,15.50
2018-12-12T05:14:08.979Z,15.55
2018-12-12T05:16:37.787Z,16.82
2018-12-12T05:19:06.053Z,17.50
2018-12-12T05:21:34.270Z,18.15
2018-12-12T05:24:02.723Z,17.57
2018-12-12T05:26:32.173Z,17.90
2018-12-12T05:29:00.422Z,16.37
2018-12-12T05:31:30.268Z,14.35
2018-12-12T05:33:58.501Z,15.90
2018-12-12T05:36:26.698Z,15.85
2018-12-12T05:38:54.938Z,15.72
2018-12-12T05:41:23.148Z,16.52
2018-12-12T05:43:57.477Z,17.35
2018-12-12T05:46:21.638Z,15.43
2018-12-12T05:48:49.897Z,16.55
2018-12-12T05:51:18.116Z,15.70
2018-12-12T05:53:46.341Z,14.93
2018-12-12T05:56:15.983Z,16.15
2018-12-12T05:58:44.226Z,16.32
2018-12-12T06:01:12.466Z,14.78
2018-12-12T06:03:40.724Z,16.25
2018-12-12T06:06:08.939Z,14.30
2018-12-12T06:08:37.180Z,14.55
2018-12-12T06:11:06.824Z,15.83
2018-12-12T06:13:35.066Z,14.30
2018-12-12T06:16:04.606Z,13.80
2018-12-12T06:18:32.855Z,12.35
2018-12-12T06:21:02.403Z,15.10
2018-12-12T06:23:30.663Z,13.28
2018-12-12T06:26:00.198Z,14.30
2018-12-12T06:28:29.004Z,14.10
2018-12-12T06:30:59.034Z,15.80
2018-12-12T06:33:27.238Z,15.90
2018-12-12T06:35:57.020Z,12.37
2018-12-12T06:38:25.226Z,13.35
2018-12-12T06:40:54.793Z,13.03
2018-12-12T06:43:23.019Z,12.55
2018-12-12T06:45:52.788Z,13.50
2018-12-12T06:48:20.995Z,14.40
2018-12-12T06:50:49.243Z,14.78
2018-12-12T06:53:17.458Z,15.98
2018-12-12T06:55:45.703Z,13.32
2018-12-12T06:58:13.925Z,13.62
2018-12-12T07:00:42.161Z,16.55
2018-12-12T07:03:10.377Z,17.52
2018-12-12T07:05:38.614Z,18.07
2018-12-12T07:08:06.833Z,17.15
2018-12-12T07:10:35.098Z,15.65
2018-12-12T07:13:03.305Z,15.30
2018-12-12T07:15:31.565Z,13.43
2018-12-12T07:17:59.775Z,14.75
2018-12-12T07:20:28.445Z,13.03
2018-12-12T07:22:56.660Z,14.90
2018-12-12T07:25:26.138Z,19.95
2018-12-12T07:27:54.374Z,16.70
2018-12-12T07:30:23.950Z,18.77
2018-12-12T07:32:52.165Z,17.07
2018-12-12T07:35:21.745Z,14.80
2018-12-12T07:37:51.400Z,13.78
2018-12-12T07:40:19.655Z,16.35
2018-12-12T07:42:49.398Z,14.40
2018-12-12T07:45:17.631Z,11.50
2018-12-12T07:47:47.294Z,13.20
2018-12-12T07:50:15.761Z,14.70
2018-12-12T07:52:45.297Z,11.22
2018-12-12T07:55:13.558Z,13.48
2018-12-12T07:57:43.096Z,13.38
2018-12-12T08:00:11.352Z,12.73
2018-12-12T08:02:41.580Z,12.50
2018-12-12T08:05:09.822Z,13.78
2018-12-12T08:07:39.502Z,13.38
2018-12-12T08:10:07.746Z,14.50
2018-12-12T08:12:37.506Z,15.15
2018-12-12T08:15:05.718Z,12.85
2018-12-12T08:17:35.490Z,13.35
2018-12-12T08:20:04.414Z,13.30
2018-12-12T08:22:34.585Z,15.15
2018-12-12T08:25:03.132Z,15.13
2018-12-12T08:27:33.421Z,14.58
2018-12-12T08:30:01.641Z,11.60
2018-12-12T08:32:31.923Z,10.98
2018-12-12T08:35:00.139Z,11.12
2018-12-12T08:37:28.388Z,14.23
2018-12-12T08:39:56.607Z,13.60
2018-12-12T08:42:24.884Z,10.10
2018-12-12T08:44:53.234Z,10.00
2018-12-12T08:47:23.006Z,11.25
2018-12-12T08:49:51.231Z,14.68
2018-12-12T08:52:19.597Z,10.58
2018-12-12T08:54:47.827Z,16.40
2018-12-12T08:57:16.170Z,14.10
2018-12-12T08:59:44.808Z,12.50
2018-12-12T09:02:14.519Z,10.30
2018-12-12T09:04:42.754Z,11.20
2018-12-12T09:07:11.085Z,10.40
2018-12-12T09:09:39.689Z,11.85
2018-12-12T09:12:08.035Z,11.60
2018-12-12T09:14:36.798Z,11.30
2018-12-12T09:17:09.598Z,12.68
2018-12-12T09:19:37.242Z,10.78
2018-12-12T09:22:06.882Z,12.00
2018-12-12T09:24:35.244Z,11.03
2018-12-12T09:27:04.841Z,9.53
2018-12-12T09:29:33.113Z,12.85
2018-12-12T09:32:02.170Z,11.57
2018-12-12T09:34:30.637Z,10.98
2018-12-12T09:37:00.281Z,9.10
2018-12-12T09:39:28.526Z,9.20
2018-12-12T09:41:56.946Z,11.30
2018-12-12T09:44:25.390Z,11.33
2018-12-12T09:46:55.053Z,9.78
2018-12-12T09:49:23.998Z,9.70
2018-12-12T09:51:53.538Z,11.68
2018-12-12T09:54:22.123Z,10.10
2018-12-12T09:56:51.769Z,11.28
2018-12-12T09:59:20.138Z,10.90
2018-12-12T10:01:48.703Z,12.05
2018-12-12T10:04:17.974Z,11.85
2018-12-12T10:06:47.309Z,11.65
2018-12-12T10:09:15.679Z,10.45
2018-12-12T10:11:46.387Z,12.07
2018-12-12T10:14:14.767Z,9.60
2018-12-12T10:16:44.386Z,7.87
2018-12-12T10:19:12.631Z,10.53
2018-12-12T10:21:41.154Z,8.43
2018-12-12T10:24:09.726Z,9.93
2018-12-12T10:26:38.165Z,10.23
2018-12-12T10:29:06.652Z,8.30
2018-12-12T10:31:36.471Z,9.88
2018-12-12T10:34:05.737Z,9.25
2018-12-12T10:36:35.605Z,9.53
2018-12-12T10:39:07.068Z,9.10
2018-12-12T10:41:37.448Z,8.90
2018-12-12T10:44:05.825Z,7.90
2018-12-12T10:46:35.250Z,9.30
2018-12-12T10:49:03.737Z,9.40
2018-12-12T10:51:34.031Z,9.03
2018-12-12T10:54:02.513Z,9.93
2018-12-12T10:56:32.013Z,9.40
2018-12-12T10:59:00.946Z,9.05
2018-12-12T11:01:32.344Z,8.70
2018-12-12T11:04:02.672Z,7.87
2018-12-12T11:06:32.695Z,7.33
2018-12-12T11:09:01.418Z,7.47
2018-12-12T11:11:31.703Z,9.17
2018-12-12T11:14:00.383Z,8.47
2018-12-12T11:16:31.358Z,6.17
2018-12-12T11:19:00.477Z,6.00
2018-12-12T11:21:31.368Z,8.40
2018-12-12T11:24:00.436Z,8.25
2018-12-12T11:26:30.214Z,6.65
2018-12-12T11:28:58.436Z,7.30
2018-12-12T11:31:26.786Z,6.20
2018-12-12T11:33:55.126Z,7.80
2018-12-12T11:36:23.487Z,6.90
2018-12-12T11:38:52.449Z,7.00
2018-12-12T11:41:22.103Z,7.08
2018-12-12T11:43:50.353Z,6.97
2018-12-12T11:46:20.133Z,7.70
2018-12-12T11:48:48.360Z,7.73
2018-12-12T11:51:16.721Z,6.92
2018-12-12T11:53:46.371Z,8.20
2018-12-12T11:56:15.165Z,7.47
2018-12-12T11:58:43.497Z,7.08
2018-12-12T12:01:13.598Z,8.43
2018-12-12T12:03:41.844Z,8.75
2018-12-12T12:06:12.101Z,8.78
2018-12-12T12:08:40.952Z,6.57
2018-12-12T12:11:10.778Z,6.00
2018-12-12T12:13:39.050Z,5.60
2018-12-12T12:16:08.779Z,5.95
2018-12-12T12:18:37.266Z,5.90
2018-12-12T12:21:07.448Z,6.80
2018-12-12T12:23:36.197Z,6.23
2018-12-12T12:26:05.818Z,5.23
2018-12-12T12:28:34.163Z,5.30
2018-12-12T12:31:03.843Z,5.37
2018-12-12T12:33:32.504Z,5.60
2018-12-12T12:36:00.750Z,4.43
2018-12-12T12:38:30.214Z,4.00
2018-12-12T12:40:59.951Z,3.60
2018-12-12T12:43:28.188Z,3.90
2018-12-12T12:45:56.410Z,3.70
2018-12-12T12:48:25.230Z,3.30
2018-12-12T12:50:54.762Z,3.53
2018-12-12T12:53:22.983Z,3.40
2018-12-12T12:55:53.231Z,3.53
2018-12-12T12:58:21.471Z,3.60
2018-12-12T13:00:51.107Z,3.40
2018-12-12T13:03:19.926Z,3.87
2018-12-12T13:05:48.122Z,4.00
2018-12-12T13:08:17.397Z,4.20
2018-12-12T13:10:45.621Z,4.10
2018-12-12T13:13:14.281Z,5.40
2018-12-12T13:15:42.998Z,3.93
2018-12-12T13:18:11.602Z,3.57
2018-12-12T13:20:41.025Z,3.87
2018-12-12T13:23:09.379Z,4.20
2018-12-12T13:25:37.855Z,4.17
2018-12-12T13:28:06.112Z,4.87
2018-12-12T13:30:34.315Z,5.50
2018-12-12T13:33:02.513Z,3.90
2018-12-12T13:35:32.287Z,3.80
2018-12-12T13:38:00.484Z,3.50
2018-12-12T13:40:30.630Z,4.17
2018-12-12T13:42:59.486Z,4.20
2018-12-12T13:45:29.179Z,4.50
2018-12-12T13:47:58.097Z,4.80
2018-12-12T13:50:27.250Z,4.20
2018-12-12T13:52:55.582Z,4.80
2018-12-12T13:55:24.692Z,3.60
2018-12-12T13:57:53.685Z,3.70
2018-12-12T14:00:21.909Z,4.70
2018-12-12T14:02:51.633Z,5.50
2018-12-12T14:05:19.987Z,4.60
2018-12-12T14:07:50.294Z,3.60
2018-12-12T14:10:18.515Z,5.57
2018-12-12T14:12:48.038Z,4.33
2018-12-12T14:15:16.821Z,3.83
2018-12-12T14:17:46.343Z,4.80
2018-12-12T14:20:14.743Z,4.03
2018-12-12T14:22:44.858Z,4.20
2018-12-12T14:25:13.079Z,5.50
2018-12-12T14:27:42.815Z,7.33
2018-12-12T14:30:11.060Z,5.40
2018-12-12T14:32:40.802Z,5.00
2018-12-12T14:35:09.215Z,5.80
2018-12-12T14:37:38.738Z,6.00
2018-12-12T14:40:07.607Z,8.20
2018-12-12T14:42:37.265Z,7.00
2018-12-12T14:45:05.552Z,7.37
2018-12-12T14:47:35.706Z,6.80
2018-12-12T14:50:04.432Z,6.40
2018-12-12T14:52:34.112Z,6.20
2018-12-12T14:55:02.525Z,5.30
2018-12-12T14:57:32.790Z,4.70
2018-12-12T15:00:00.982Z,8.17
2018-12-12T15:02:31.234Z,8.90
2018-12-12T15:04:59.483Z,9.33
2018-12-12T15:07:27.848Z,10.30
2018-12-12T15:09:58.673Z,7.87
2018-12-12T15:12:28.231Z,9.30
2018-12-12T15:14:56.650Z,8.67
2018-12-12T15:17:26.359Z,11.40
2018-12-12T15:19:54.567Z,10.80
2018-12-12T15:22:24.216Z,8.83
2018-12-12T15:24:52.417Z,7.63
2018-12-12T15:27:21.974Z,7.63
2018-12-12T15:29:50.406Z,8.30
2018-12-12T15:32:18.786Z,5.93
2018-12-12T15:34:46.982Z,4.95
2018-12-12T15:37:16.641Z,5.00
2018-12-12T15:39:45.096Z,5.90
2018-12-12T15:42:13.349Z,5.03
2018-12-12T15:44:41.576Z,7.20
2018-12-12T15:47:09.821Z,6.73
2018-12-12T15:49:38.333Z,4.50
2018-12-12T15:52:08.089Z,3.57
2018-12-12T15:54:36.624Z,4.50
2018-12-12T15:57:04.889Z,4.97
2018-12-12T15:59:35.350Z,4.25
2018-12-12T16:02:05.140Z,3.95
2018-12-12T16:04:33.462Z,4.50
2018-12-12T16:07:01.797Z,4.28
2018-12-12T16:09:30.483Z,5.12
2018-12-12T16:11:58.677Z,3.65
2018-12-12T16:14:26.898Z,3.60
2018-12-12T16:16:56.538Z,3.35
2018-12-12T16:19:24.768Z,4.10
2018-12-12T16:21:53.085Z,4.80
2018-12-12T16:24:21.934Z,4.42
2018-12-12T16:26:51.681Z,4.10
2018-12-12T16:29:20.005Z,4.62
2018-12-12T16:31:48.231Z,9.90
2018-12-12T16:34:17.193Z,5.10
2018-12-12T16:36:46.831Z,5.72
2018-12-12T16:39:15.068Z,12.88
2018-12-12T16:41:43.805Z,4.78
2018-12-12T16:44:12.041Z,4.25
2018-12-12T16:46:41.572Z,3.22
2018-12-12T16:49:09.934Z,5.05
2018-12-12T16:51:38.136Z,7.62
2018-12-12T16:54:06.372Z,4.67
2018-12-12T16:56:35.798Z,4.22
2018-12-12T16:59:04.045Z,3.90
2018-12-12T17:01:33.778Z,4.10
2018-12-12T17:04:02.138Z,4.83
2018-12-12T17:06:30.363Z,4.72
2018-12-12T17:08:58.579Z,5.25
2018-12-12T17:11:26.815Z,6.20
2018-12-12T17:13:55.046Z,6.37
2018-12-12T17:16:24.916Z,4.90
2018-12-12T17:18:53.120Z,4.55
2018-12-12T17:21:23.402Z,7.70
2018-12-12T17:23:51.742Z,6.87
2018-12-12T17:26:22.035Z,6.28
2018-12-12T17:28:50.521Z,5.40
2018-12-12T17:31:19.979Z,7.05
2018-12-12T17:33:48.177Z,5.00
2018-12-12T17:36:17.750Z,4.75
2018-12-12T17:38:47.972Z,5.22
2018-12-12T17:41:16.206Z,5.92
2018-12-12T17:43:44.410Z,5.67
2018-12-12T17:46:13.972Z,6.25
2018-12-12T17:48:42.173Z,7.80
2018-12-12T17:51:10.406Z,7.15
2018-12-12T17:53:38.614Z,5.60
2018-12-12T17:56:08.079Z,6.70
2018-12-12T17:58:36.283Z,7.35
2018-12-12T18:01:04.512Z,7.95
2018-12-12T18:03:32.727Z,8.48
2018-12-12T18:06:00.967Z,8.05
2018-12-12T18:08:29.174Z,8.10
2018-12-12T18:10:58.655Z,10.20
2018-12-12T18:13:27.054Z,10.30
2018-12-12T18:15:55.294Z,8.03
2018-12-12T18:18:23.526Z,6.97
2018-12-12T18:20:53.155Z,7.75
2018-12-12T18:23:21.408Z,8.10
2018-12-12T18:25:49.827Z,9.50
2018-12-12T18:28:18.126Z,8.43
2018-12-12T18:30:48.048Z,6.67
2018-12-12T18:33:16.329Z,6.50
2018-12-12T18:35:45.848Z,6.72
2018-12-12T18:38:15.597Z,6.42
2018-12-12T18:40:45.270Z,6.90
2018-12-12T18:43:13.727Z,7.30
2018-12-12T18:45:42.521Z,7.50
2018-12-12T18:48:11.320Z,8.10
2018-12-12T18:50:40.129Z,7.20
2018-12-12T18:53:08.360Z,7.22
2018-12-12T18:55:37.965Z,6.78
2018-12-12T18:58:06.208Z,7.55
2018-12-12T19:00:34.536Z,7.05
2018-12-12T19:03:02.768Z,6.95
2018-12-12T19:05:32.423Z,7.53
2018-12-12T19:08:00.685Z,7.80
2018-12-12T19:10:29.004Z,8.05
2018-12-12T19:12:57.366Z,8.43
2018-12-12T19:15:25.578Z,9.40
2018-12-12T19:17:53.837Z,10.38
2018-12-12T19:20:22.125Z,10.90
2018-12-12T19:22:51.793Z,9.53
2018-12-12T19:25:20.031Z,11.20
2018-12-12T19:27:49.819Z,11.18
2018-12-12T19:30:18.058Z,10.30
2018-12-12T19:32:47.622Z,11.68
2018-12-12T19:35:16.397Z,12.20
2018-12-12T19:37:45.973Z,14.85
2018-12-12T19:40:14.190Z,13.98
2018-12-12T19:42:43.980Z,15.10
2018-12-12T19:45:12.318Z,14.58
2018-12-12T19:47:41.902Z,14.03
2018-12-12T19:50:10.159Z,14.03
2018-12-12T19:52:40.095Z,14.25
2018-12-12T19:55:08.356Z,12.70
2018-12-12T19:57:37.972Z,13.85
2018-12-12T20:00:06.535Z,14.45
2018-12-12T20:02:36.769Z,13.05
2018-12-12T20:05:05.507Z,13.15
2018-12-12T20:07:35.243Z,14.00
2018-12-12T20:10:03.685Z,12.93
2018-12-12T20:12:33.620Z,13.28
2018-12-12T20:15:01.857Z,13.70
2018-12-12T20:17:32.098Z,14.70
2018-12-12T20:20:00.484Z,14.20
2018-12-12T20:22:30.748Z,13.43
2018-12-12T20:24:59.047Z,20.60
2018-12-12T20:27:27.570Z,22.85
2018-12-12T20:29:55.822Z,22.02
2018-12-12T20:32:25.362Z,15.50
2018-12-12T20:34:53.615Z,17.05
2018-12-12T20:37:21.843Z,19.40
2018-12-12T20:39:50.106Z,14.98
2018-12-12T20:42:19.652Z,16.27
2018-12-12T20:44:47.893Z,15.68
2018-12-12T20:47:17.425Z,14.35
2018-12-12T20:49:45.790Z,15.70
2018-12-12T20:52:14.010Z,17.12
2018-12-12T20:54:42.270Z,19.05
2018-12-12T20:57:10.522Z,16.42
2018-12-12T20:59:38.881Z,16.30
2018-12-12T21:02:08.636Z,14.30
2018-12-12T21:04:37.514Z,15.00
2018-12-12T21:07:07.151Z,14.15
2018-12-12T21:09:35.427Z,15.75
2018-12-12T21:12:04.149Z,13.43
2018-12-12T21:14:32.493Z,14.10
2018-12-12T21:17:00.832Z,13.38
2018-12-12T21:19:29.169Z,13.40
2018-12-12T21:21:57.641Z,11.97
2018-12-12T21:24:25.864Z,12.80
2018-12-12T21:26:54.265Z,11.33
2018-12-12T21:29:22.490Z,12.45
2018-12-12T21:31:50.753Z,12.18
2018-12-12T21:34:19.082Z,14.15
2018-12-12T21:36:47.438Z,13.83
2018-12-12T21:39:16.653Z,16.20
2018-12-12T21:41:46.919Z,15.48
2018-12-12T21:44:15.145Z,15.32
2018-12-12T21:46:45.410Z,32.55
2018-12-12T21:49:13.945Z,12.00
2018-12-12T21:51:43.718Z,13.55
2018-12-12T21:54:11.941Z,12.73
2018-12-12T21:56:41.830Z,11.93
2018-12-12T21:59:10.509Z,14.80
2018-12-12T22:01:39.069Z,18.10
2018-12-12T22:04:07.460Z,19.55
2018-12-12T22:06:35.745Z,20.52
2018-12-12T22:09:05.674Z,18.73
2018-12-12T22:11:35.945Z,18.40
2018-12-12T22:14:04.164Z,19.00
2018-12-12T22:16:34.030Z,18.80
2018-12-12T22:19:02.245Z,28.42
2018-12-12T22:21:31.518Z,28.30
2018-12-12T22:23:59.859Z,23.98
2018-12-12T22:26:29.456Z,21.48
2018-12-12T22:28:57.662Z,21.60
2018-12-12T22:31:25.873Z,20.23
2018-12-12T22:33:54.135Z,18.07
2018-12-12T22:36:23.674Z,17.37
2018-12-12T22:38:52.038Z,16.25
2018-12-12T22:41:21.757Z,17.37
2018-12-12T22:43:50.126Z,15.53
2018-12-12T22:46:19.561Z,17.15
2018-12-12T22:48:48.161Z,18.12
2018-12-12T22:51:16.587Z,16.85
2018-12-12T22:53:45.073Z,16.07
2018-12-12T22:56:15.214Z,15.43
2018-12-12T22:58:43.441Z,16.32
2018-12-12T23:01:13.656Z,15.65
2018-12-12T23:03:43.914Z,13.30
2018-12-12T23:06:13.555Z,12.85
2018-12-12T23:08:41.999Z,12.30
2018-12-12T23:11:11.592Z,14.00
2018-12-12T23:13:39.992Z,13.22
2018-12-12T23:16:10.217Z,13.08
2018-12-12T23:18:39.637Z,13.20
2018-12-12T23:21:08.176Z,12.03
2018-12-12T23:23:38.002Z,12.28
2018-12-12T23:26:06.513Z,11.95
2018-12-12T23:28:35.665Z,12.63
2018-12-12T23:31:04.139Z,11.45
2018-12-12T23:33:33.106Z,12.35
2018-12-12T23:36:02.149Z,12.15
2018-12-12T23:38:30.602Z,13.08
2018-12-12T23:40:59.362Z,12.23
2018-12-12T23:43:27.593Z,12.23
2018-12-12T23:45:57.388Z,12.10
2018-12-12T23:48:25.600Z,13.00
2018-12-12T23:50:53.857Z,11.28
2018-12-12T23:53:22.225Z,12.53
2018-12-12T23:55:50.572Z,11.90
2018-12-12T23:58:19.460Z,12.98
